Latest Weather Observations for Wyndham Airport

IDD60801

Issued at 9:31 am CST Sunday 11 December 2016 (issued every 30 minutes, with the page automatically refreshed every 10 minutes)

About weather observations | Map of weather stations | Latest weather observations for NT | Other Formats
Station Details ID: 001006 Name: WYNDHAM AERO Lat: -15.51 Lon: 128.15 Height: 3.8 m
Data from the previous 72 hours. | See also: Recent months at Wyndham Airport
Date/Time
CST
Temp
°C
App
Temp
°C
Dew
Point
°C
Rel
Hum
%
Delta-T
°C
Wind Press
QNH
hPa
Press
MSL
hPa
Rain since
9am
mm
Dir  Spd
km/h
Gust
km/h
Spd
kts
Gust
kts
11/09:30am 31.1 33.0 22.1 58 6.1 NNW 15 20 8 11 1010.7 1010.7 0.0
11/09:00am 30.9 32.3 21.1 56 6.6 N 15 24 8 13 1010.4 1010.4 0.0
11/08:30am 31.1 33.0 22.1 58 6.1 N 15 19 8 10 1010.0 1010.0 0.0
11/08:00am 31.0 32.4 22.9 62 5.6 N 20 30 11 16 1009.6 1009.6 0.0
11/07:30am 29.8 30.9 22.3 64 5.1 N 20 26 11 14 1009.2 1009.2 0.0
11/07:00am 31.2 35.3 23.0 61 5.6 N 6 7 3 4 1008.5 1008.5 0.0
11/06:30am 30.4 34.7 23.3 66 4.9 N 6 9 3 5 1007.9 1007.9 0.0
11/06:00am 31.0 36.3 23.1 63 5.4 CALM 0 0 0 0 1007.4 1007.4 0.0
11/05:30am 31.5 37.4 24.1 65 5.2 CALM 0 0 0 0 1007.3 1007.3 0.0
11/05:00am 31.5 37.3 23.9 64 5.3 CALM 0 0 0 0 1007.0 1007.0 0.0
11/04:30am 30.8 36.5 23.7 66 4.9 CALM 0 0 0 0 1006.8 1006.8 0.0
11/04:00am 30.9 35.3 23.5 64 5.1 ENE 6 7 3 4 1006.4 1006.4 0.0
11/03:30am 31.3 34.9 23.7 64 5.3 ESE 11 13 6 7 1006.6 1006.6 0.0
11/03:00am 31.4 35.2 23.5 63 5.5 E 9 11 5 6 1006.6 1006.6 0.0
11/02:30am 31.3 34.5 23.1 61 5.7 E 11 13 6 7 1006.4 1006.4 0.0
11/02:00am 31.3 35.2 22.9 61 5.8 E 7 9 4 5 1006.5 1006.5 0.0
11/01:30am 31.1 34.5 22.7 61 5.8 E 9 13 5 7 1006.7 1006.7 0.0
11/01:00am 31.4 34.8 22.7 60 6.0 ESE 9 13 5 7 1007.1 1007.1 0.0
11/12:30am 32.5 37.3 22.9 57 6.6 SSE 2 13 1 7 1007.2 1007.2 0.0
11/12:00am 32.6 36.9 21.1 50 7.7 CALM 0 0 0 0 1007.3 1007.3 0.0
 
Date/Time
CST
Temp
°C
App
Temp
°C
Dew
Point
°C
Rel
Hum
%
Delta-T
°C
Wind Press
QNH
hPa
Press
MSL
hPa
Rain since
9am
mm
Dir  Spd
km/h
Gust
km/h
Spd
kts
Gust
kts
10/11:30pm 32.4 36.9 21.6 53 7.3 CALM 0 0 0 0 1007.6 1007.6 0.0
10/11:00pm 32.0 36.6 21.8 54 6.9 CALM 0 0 0 0 1007.7 1007.7 0.0
10/10:30pm 32.0 35.6 22.1 55 6.7 E 6 7 3 4 1007.7 1007.7 0.0
10/10:00pm 32.0 35.3 21.8 54 6.9 ESE 7 9 4 5 1007.7 1007.7 0.0
10/09:30pm 32.2 34.5 21.4 53 7.3 ESE 11 13 6 7 1007.8 1007.8 0.0
10/09:00pm 32.3 34.9 21.2 52 7.5 ESE 9 13 5 7 1007.8 1007.8 0.0
10/08:30pm 33.0 34.7 20.9 49 8.1 E 13 17 7 9 1007.6 1007.6 0.0
10/08:00pm 33.7 35.8 20.1 44 9.0 E 9 13 5 7 1007.1 1007.1 0.0
10/07:30pm 33.7 36.1 20.8 46 8.7 E 9 13 5 7 1006.5 1006.5 0.0
10/07:00pm 34.2 35.7 21.3 47 8.7 E 15 20 8 11 1006.3 1006.3 0.0
10/06:30pm 34.6 33.8 20.9 44 9.3 ESE 26 35 14 19 1006.3 1006.3 0.0
10/06:00pm 36.9 39.3 18.9 34 11.9 NE 4 11 2 6 1006.0 1006.0 0.0
10/05:30pm 37.1 38.8 18.6 33 12.2 E 7 15 4 8 1005.9 1005.9 0.0
10/05:00pm 37.5 39.2 19.4 34 12.1 SSW 9 17 5 9 1005.5 1005.5 0.0
10/04:30pm 36.7 38.7 18.7 34 11.9 W 6 17 3 9 1005.8 1005.8 0.0
10/04:00pm 36.4 37.9 18.9 35 11.5 SE 9 17 5 9 1006.2 1006.2 0.0
10/03:30pm 36.2 39.2 20.0 38 10.9 W 4 13 2 7 1006.6 1006.6 0.0
10/03:00pm 35.4 37.8 20.1 40 10.2 WSW 7 11 4 6 1007.1 1007.1 0.0
10/02:30pm 35.3 37.7 20.8 42 9.8 WSW 9 15 5 8 1007.6 1007.6 0.0
10/02:00pm 33.6 36.5 21.1 48 8.4 SSE 7 13 4 7 1008.2 1008.2 0.0
10/01:30pm 32.2 34.6 20.8 51 7.6 SSE 9 15 5 8 1008.8 1008.8 0.0
10/01:00pm 30.8 34.3 22.1 59 5.9 SSE 7 11 4 6 1009.4 1009.4 0.0
10/12:30pm 30.0 33.8 22.7 65 5.0 W 7 9 4 5 1010.0 1010.0 0.0
10/12:00pm 29.4 33.7 22.6 67 4.6 SW 4 9 2 5 1010.6 1010.6 0.0
10/11:30am 28.6 32.7 22.3 68 4.3 SSW 4 7 2 4 1011.1 1011.1 0.0
10/11:00am 28.3 32.0 22.3 70 4.1 SSW 6 9 3 5 1011.5 1011.5 0.0
10/10:30am 28.2 31.2 22.0 69 4.2 SW 9 11 5 6 1011.4 1011.4 0.0
10/10:00am 27.8 30.6 22.3 72 3.7 SSE 11 19 6 10 1011.1 1011.1 0.0
10/09:30am 28.1 30.3 22.6 72 3.7 SE 15 19 8 10 1011.1 1011.1 0.0
10/09:00am 28.0 31.0 22.0 70 4.0 SE 9 13 5 7 1011.2 1011.2 0.0
10/08:30am 27.2 30.9 22.6 76 3.1 S 7 11 4 6 1010.6 1010.6 0.0
10/08:00am 26.9 30.2 22.5 77 3.0 S 9 15 5 8 1010.2 1010.2 0.0
10/07:30am 26.5 30.0 22.8 80 2.5 S 9 11 5 6 1010.4 1010.4 0.0
10/07:00am 26.1 27.7 23.2 84 2.0 S 20 26 11 14 1010.6 1010.6 0.0
10/06:30am 26.1 27.4 22.4 80 2.5 SSW 19 22 10 12 1010.0 1010.0 0.0
10/06:00am 26.1 26.3 22.0 78 2.7 SSW 24 30 13 16 1009.7 1009.7 0.0
10/05:30am 26.3 27.2 21.9 77 2.9 S 20 28 11 15 1009.2 1009.2 0.0
10/05:00am 26.3 26.8 21.1 73 3.4 SE 20 32 11 17 1009.0 1009.0 0.0
10/04:59am 26.6 27.1 21.1 72 3.6 SE 20 32 11 17 1008.9 1008.9 0.0
10/04:35am 27.8 25.4 21.8 70 4.0 SSE 37 56 20 30 1008.4 1008.4 0.0
10/04:30am 27.1 24.4 22.7 77 3.0 SE 41 56 22 30 1008.6 1008.6 0.0
10/04:23am 26.9 25.2 22.5 77 3.0 SE 35 54 19 29 1008.8 1008.8 0.0
10/04:18am 27.3 27.7 22.5 75 3.2 SE 24 44 13 24 1008.8 1008.8 0.0
10/04:00am 28.4 29.9 23.1 73 3.6 S 20 30 11 16 1008.1 1008.1 0.0
10/03:30am 29.0 29.9 23.4 72 3.9 SSW 24 33 13 18 1007.0 1007.0 0.0
10/03:00am 31.2 30.9 21.9 57 6.3 WSW 26 35 14 19 1006.8 1006.8 0.0
10/02:30am 32.4 32.5 20.3 48 8.1 NNW 20 28 11 15 1006.5 1006.5 0.0
10/02:00am 33.2 35.5 21.4 50 8.0 NNW 11 17 6 9 1007.0 1007.0 0.0
10/01:30am 33.4 35.2 21.2 48 8.2 NW 13 15 7 8 1006.5 1006.5 0.0
10/01:00am 33.8 34.0 20.6 46 8.8 NW 20 26 11 14 1006.5 1006.5 0.0
10/12:30am 33.7 34.3 19.4 43 9.4 NNW 15 19 8 10 1006.9 1006.9 0.0
10/12:00am 33.9 34.6 19.6 43 9.5 NNW 15 20 8 11 1007.1 1007.1 0.0
 
Date/Time
CST
Temp
°C
App
Temp
°C
Dew
Point
°C
Rel
Hum
%
Delta-T
°C
Wind Press
QNH
hPa
Press
MSL
hPa
Rain since
9am
mm
Dir  Spd
km/h
Gust
km/h
Spd
kts
Gust
kts
09/11:30pm 33.7 36.1 21.5 49 8.3 NNW 11 13 6 7 1007.4 1007.4 0.0
09/11:00pm 33.9 36.0 21.0 47 8.7 NNW 11 19 6 10 1007.4 1007.4 0.0
09/10:30pm 33.4 37.6 20.9 48 8.4 CALM 0 2 0 1 1007.4 1007.4 0.0
09/10:00pm 33.6 35.6 20.7 46 8.6 WNW 11 15 6 8 1007.1 1007.1 0.0
09/09:30pm 33.4 34.3 20.9 48 8.4 N 17 24 9 13 1006.6 1006.6 0.0
09/09:00pm 33.5 34.3 21.3 48 8.2 N 19 26 10 14 1006.0 1006.0 0.0
09/08:30pm 33.7 34.7 22.1 50 7.9 N 20 28 11 15 1005.6 1005.6 0.0
09/08:00pm 34.5 33.5 19.7 41 9.8 NNE 24 35 13 19 1004.9 1004.9 0.0
09/07:30pm 34.9 34.9 20.1 42 9.9 N 20 30 11 16 1004.8 1004.8 0.0
09/07:00pm 35.5 35.9 20.6 41 10.0 N 19 26 10 14 1004.4 1004.4 0.0
09/06:30pm 36.1 36.2 20.4 40 10.6 N 20 26 11 14 1004.0 1004.0 0.0
09/06:00pm 36.6 36.1 19.1 35 11.6 N 20 28 11 15 1003.5 1003.5 0.0
09/05:30pm 37.2 37.5 18.7 33 12.2 N 15 20 8 11 1003.2 1003.2 0.0
09/05:00pm 37.5 37.7 18.5 32 12.5 NNE 15 22 8 12 1003.3 1003.3 0.0
09/04:30pm 37.8 38.1 18.7 32 12.7 N 15 20 8 11 1003.6 1003.6 0.0
09/04:00pm 38.8 38.4 18.1 29 13.6 NE 17 24 9 13 1003.6 1003.6 0.0
09/03:30pm 38.5 37.4 17.8 29 13.6 NNE 20 30 11 16 1003.8 1003.8 0.0
09/03:00pm 38.1 37.6 19.0 32 12.7 N 20 26 11 14 1003.9 1003.9 0.0
09/02:30pm 38.1 37.7 18.0 30 13.2 NNW 17 26 9 14 1004.6 1004.6 0.0
09/02:00pm 39.6 39.6 18.2 28 14.1 NNW 15 30 8 16 1004.7 1004.7 0.0
09/01:30pm 38.6 38.6 18.9 31 13.1 N 17 28 9 15 1005.4 1005.4 0.0
09/01:00pm 39.0 39.8 19.8 32 12.9 NNW 15 22 8 12 1005.7 1005.7 0.0
09/12:30pm 37.8 39.7 19.7 34 12.1 NNW 9 20 5 11 1006.4 1006.4 0.0
09/12:00pm 37.8 39.1 20.1 35 11.9 N 13 20 7 11 1006.6 1006.6 0.0
09/11:30am 37.7 39.2 20.5 36 11.6 W 13 19 7 10 1006.9 1006.9 0.0
09/11:00am 36.3 39.5 20.5 39 10.6 N 4 9 2 5 1007.1 1007.1 0.0
09/10:30am 36.3 39.3 20.9 40 10.4 ESE 6 22 3 12 1007.2 1007.2 0.0
09/10:00am 36.0 37.8 21.8 43 9.7 ESE 15 20 8 11 1007.7 1007.7 0.0
09/09:30am 34.8 37.0 19.2 39 10.3 SSE 6 15 3 8 1007.9 1007.9 0.0
09/09:00am 33.6 35.6 20.0 44 9.0 W 9 13 5 7 1007.9 1007.9 0.0
09/08:30am 33.2 34.3 19.7 45 8.9 WSW 13 20 7 11 1007.6 1007.6 0.0
09/08:00am 33.2 33.2 18.9 42 9.3 WSW 17 20 9 11 1007.1 1007.1 0.0
09/07:30am 32.5 33.9 20.4 49 8.1 W 13 17 7 9 1006.7 1006.7 0.0
09/07:00am 31.8 32.9 20.4 51 7.6 W 15 17 8 9 1006.4 1006.4 0.0
09/06:30am 31.9 32.5 20.2 50 7.8 WSW 17 20 9 11 1006.2 1006.2 0.0
09/06:00am 32.1 34.8 20.7 51 7.6 W 7 9 4 5 1005.5 1005.5 0.0
09/05:30am 32.2 33.9 20.1 48 8.0 W 11 15 6 8 1005.0 1005.0 0.0
09/05:00am 32.6 34.6 20.8 49 7.9 W 11 13 6 7 1004.8 1004.8 0.0
09/04:30am 32.0 34.8 21.5 53 7.1 NW 9 15 5 8 1004.5 1004.5 0.0
09/04:00am 32.7 35.3 21.2 50 7.7 WNW 9 13 5 7 1004.5 1004.5 0.0
09/03:30am 33.2 35.1 21.4 50 8.0 WNW 13 15 7 8 1004.5 1004.5 0.0
09/03:00am 33.3 34.9 21.5 50 8.0 WNW 15 17 8 9 1004.5 1004.5 0.0
09/02:30am 33.2 34.8 21.4 50 8.0 W 15 19 8 10 1004.6 1004.6 0.0
09/02:00am 33.4 35.6 21.2 48 8.2 W 11 13 6 7 1004.8 1004.8 0.0
09/01:30am 33.8 34.5 21.2 47 8.5 W 19 20 10 11 1004.9 1004.9 0.0
09/01:00am 34.3 35.7 21.0 45 9.0 W 15 20 8 11 1005.2 1005.2 0.0
09/12:30am 34.2 35.2 19.4 41 9.8 NW 13 15 7 8 1005.4 1005.4 0.0
09/12:00am 34.0 36.0 20.7 45 8.9 NNW 11 17 6 9 1005.4 1005.4 0.0
 
Date/Time
CST
Temp
°C
App
Temp
°C
Dew
Point
°C
Rel
Hum
%
Delta-T
°C
Wind Press
QNH
hPa
Press
MSL
hPa
Rain since
9am
mm
Dir  Spd
km/h
Gust
km/h
Spd
kts
Gust
kts
08/11:30pm 33.3 38.5 24.2 59 6.4 NNW 4 6 2 3 1005.5 1005.5 0.0
08/11:00pm 33.4 37.7 24.3 59 6.4 N 9 13 5 7 1005.4 1005.4 0.0
08/10:30pm 33.4 37.6 23.4 55 7.0 N 7 11 4 6 1005.2 1005.2 0.0
08/10:00pm 34.1 36.6 22.5 50 8.0 WNW 13 22 7 12 1005.0 1005.0 0.0
08/09:30pm 34.2 34.5 21.6 47 8.6 N 22 30 12 16 1004.4 1004.4 0.0
08/09:00pm 34.1 34.7 22.8 51 7.8 N 24 32 13 17 1004.1 1004.1 0.0
08/08:30pm 34.7 34.7 21.0 44 9.3 N 22 32 12 17 1003.9 1003.9 0.0
08/08:00pm 35.2 33.4 18.7 37 10.8 N 26 37 14 20 1003.5 1003.5 0.0
08/07:30pm 35.6 33.6 19.1 38 10.9 N 28 37 15 20 1003.1 1003.1 0.0
08/07:00pm 36.4 33.9 18.9 35 11.5 N 30 39 16 21 1002.7 1002.7 0.0
08/06:30pm 37.8 35.4 18.3 32 12.9 N 28 35 15 19 1002.5 1002.5 0.0
08/06:00pm 38.9 36.0 17.1 28 14.1 NNE 28 35 15 19 1001.9 1001.9 0.0
08/05:30pm 39.4 36.7 17.5 27 14.4 NNE 28 39 15 21 1001.9 1001.9 0.0
08/05:00pm 39.6 36.0 17.1 26 14.6 NNE 32 41 17 22 1001.7 1001.7 0.0
08/04:30pm 40.7 37.6 15.5 23 16.1 N 26 39 14 21 1001.7 1001.7 0.0
08/04:00pm 41.3 39.8 15.3 22 16.6 N 17 24 9 13 1002.0 1002.0 0.0
08/03:30pm 41.1 39.4 15.8 22 16.3 NW 19 33 10 18 1002.3 1002.3 0.0
08/03:00pm 40.8 40.9 15.6 23 16.1 N 9 19 5 10 1002.6 1002.6 0.0
08/02:30pm 41.4 40.8 16.7 23 16.1 NNW 15 26 8 14 1002.9 1002.9 0.0
08/02:00pm 41.5 40.5 15.5 22 16.6 NNW 15 20 8 11 1003.4 1003.4 0.0
08/01:30pm 41.0 40.4 15.7 22 16.3 NE 13 28 7 15 1003.8 1003.8 0.0
08/01:00pm 40.5 39.1 14.6 21 16.3 NNE 15 22 8 12 1004.2 1004.2 0.0
08/12:30pm 40.1 39.7 16.3 24 15.4 WNW 13 20 7 11 1004.6 1004.6 0.0
08/12:00pm 39.5 40.9 18.7 29 13.8 NW 9 17 5 9 1005.1 1005.1 0.0
08/11:30am 39.4 40.8 19.6 31 13.3 N 11 17 6 9 1005.6 1005.6 0.0

Other Formats:

Comma delimited format used in spreadsheet applications
http://www.bom.gov.au/fwo/IDD60801/IDD60801.95214.axf

JavaScript Object Notation format (JSON) in row-major order
http://www.bom.gov.au/fwo/IDD60801/IDD60801.95214.json